sensor_id;sensor_type;location;lat;lon;timestamp;P1;durP1;ratioP1;P2;durP2;ratioP2
64875;SDS011;51369;49.862;9.908;2023-07-24T00:01:40;7.53;;;4.43;;
64875;SDS011;51369;49.862;9.908;2023-07-24T00:04:06;6.15;;;4.05;;
64875;SDS011;51369;49.862;9.908;2023-07-24T00:06:31;6.18;;;3.90;;
64875;SDS011;51369;49.862;9.908;2023-07-24T00:08:57;5.68;;;3.97;;
64875;SDS011;51369;49.862;9.908;2023-07-24T00:11:22;7.00;;;4.18;;
64875;SDS011;51369;49.862;9.908;2023-07-24T00:13:47;11.88;;;4.40;;
64875;SDS011;51369;49.862;9.908;2023-07-24T00:16:13;8.05;;;3.75;;
64875;SDS011;51369;49.862;9.908;2023-07-24T00:18:38;6.95;;;4.38;;
64875;SDS011;51369;49.862;9.908;2023-07-24T00:21:03;7.22;;;3.92;;
64875;SDS011;51369;49.862;9.908;2023-07-24T00:23:29;10.32;;;4.22;;
64875;SDS011;51369;49.862;9.908;2023-07-24T00:25:54;7.88;;;4.15;;
64875;SDS011;51369;49.862;9.908;2023-07-24T00:28:19;5.80;;;4.40;;
64875;SDS011;51369;49.862;9.908;2023-07-24T00:30:45;6.45;;;4.35;;
64875;SDS011;51369;49.862;9.908;2023-07-24T00:33:10;5.18;;;4.00;;
64875;SDS011;51369;49.862;9.908;2023-07-24T00:35:37;9.35;;;5.18;;
64875;SDS011;51369;49.862;9.908;2023-07-24T00:38:02;6.18;;;3.78;;
64875;SDS011;51369;49.862;9.908;2023-07-24T00:40:28;8.20;;;4.15;;
64875;SDS011;51369;49.862;9.908;2023-07-24T00:42:53;6.43;;;4.88;;
64875;SDS011;51369;49.862;9.908;2023-07-24T00:45:19;8.15;;;4.70;;
64875;SDS011;51369;49.862;9.908;2023-07-24T00:47:45;7.10;;;4.72;;
64875;SDS011;51369;49.862;9.908;2023-07-24T00:50:10;7.72;;;4.15;;
64875;SDS011;51369;49.862;9.908;2023-07-24T00:52:38;7.18;;;5.00;;
64875;SDS011;51369;49.862;9.908;2023-07-24T00:55:04;5.20;;;3.70;;
64875;SDS011;51369;49.862;9.908;2023-07-24T00:57:31;7.50;;;4.55;;
64875;SDS011;51369;49.862;9.908;2023-07-24T00:59:57;9.13;;;4.00;;
64875;SDS011;51369;49.862;9.908;2023-07-24T01:02:23;7.13;;;4.82;;
64875;SDS011;51369;49.862;9.908;2023-07-24T01:04:48;7.45;;;5.00;;
64875;SDS011;51369;49.862;9.908;2023-07-24T01:07:14;7.47;;;4.82;;
64875;SDS011;51369;49.862;9.908;2023-07-24T01:09:42;8.75;;;5.32;;
64875;SDS011;51369;49.862;9.908;2023-07-24T01:12:10;6.80;;;4.78;;
64875;SDS011;51369;49.862;9.908;2023-07-24T01:14:47;5.50;;;4.40;;
64875;SDS011;51369;49.862;9.908;2023-07-24T01:17:24;7.43;;;4.07;;
64875;SDS011;51369;49.862;9.908;2023-07-24T01:19:57;8.02;;;4.35;;
64875;SDS011;51369;49.862;9.908;2023-07-24T01:22:25;6.93;;;4.93;;
64875;SDS011;51369;49.862;9.908;2023-07-24T01:25:00;6.63;;;4.60;;
64875;SDS011;51369;49.862;9.908;2023-07-24T01:27:33;6.47;;;4.63;;
64875;SDS011;51369;49.862;9.908;2023-07-24T01:29:59;7.30;;;4.95;;
64875;SDS011;51369;49.862;9.908;2023-07-24T01:32:24;9.27;;;5.53;;
64875;SDS011;51369;49.862;9.908;2023-07-24T01:34:50;9.90;;;5.00;;
64875;SDS011;51369;49.862;9.908;2023-07-24T01:37:17;9.10;;;5.32;;
64875;SDS011;51369;49.862;9.908;2023-07-24T01:39:45;7.22;;;5.20;;
64875;SDS011;51369;49.862;9.908;2023-07-24T01:42:11;9.63;;;5.32;;
64875;SDS011;51369;49.862;9.908;2023-07-24T01:44:38;8.13;;;5.63;;
64875;SDS011;51369;49.862;9.908;2023-07-24T01:47:03;7.68;;;5.38;;
64875;SDS011;51369;49.862;9.908;2023-07-24T01:49:29;10.48;;;6.22;;
64875;SDS011;51369;49.862;9.908;2023-07-24T01:51:55;7.40;;;5.13;;
64875;SDS011;51369;49.862;9.908;2023-07-24T01:54:21;8.88;;;5.50;;
64875;SDS011;51369;49.862;9.908;2023-07-24T01:56:47;13.20;;;6.07;;
64875;SDS011;51369;49.862;9.908;2023-07-24T01:59:12;13.07;;;6.03;;
64875;SDS011;51369;49.862;9.908;2023-07-24T02:01:37;8.18;;;5.70;;
64875;SDS011;51369;49.862;9.908;2023-07-24T02:04:03;11.25;;;5.90;;
64875;SDS011;51369;49.862;9.908;2023-07-24T02:06:28;11.35;;;6.47;;
64875;SDS011;51369;49.862;9.908;2023-07-24T02:08:54;8.13;;;5.95;;
64875;SDS011;51369;49.862;9.908;2023-07-24T02:11:19;11.43;;;6.15;;
64875;SDS011;51369;49.862;9.908;2023-07-24T02:13:44;8.88;;;5.72;;
64875;SDS011;51369;49.862;9.908;2023-07-24T02:16:11;10.38;;;6.00;;
64875;SDS011;51369;49.862;9.908;2023-07-24T02:18:37;8.70;;;6.32;;
64875;SDS011;51369;49.862;9.908;2023-07-24T02:21:03;8.52;;;6.07;;
64875;SDS011;51369;49.862;9.908;2023-07-24T02:23:29;12.13;;;6.05;;
64875;SDS011;51369;49.862;9.908;2023-07-24T02:25:54;8.93;;;6.07;;
64875;SDS011;51369;49.862;9.908;2023-07-24T02:28:20;8.45;;;5.95;;
64875;SDS011;51369;49.862;9.908;2023-07-24T02:30:46;8.32;;;5.38;;
64875;SDS011;51369;49.862;9.908;2023-07-24T02:33:12;8.82;;;6.20;;
64875;SDS011;51369;49.862;9.908;2023-07-24T02:35:41;12.75;;;5.55;;
64875;SDS011;51369;49.862;9.908;2023-07-24T02:38:07;8.50;;;5.95;;
64875;SDS011;51369;49.862;9.908;2023-07-24T02:40:33;9.20;;;6.18;;
64875;SDS011;51369;49.862;9.908;2023-07-24T02:42:59;9.00;;;5.60;;
64875;SDS011;51369;49.862;9.908;2023-07-24T02:45:25;8.77;;;5.93;;
64875;SDS011;51369;49.862;9.908;2023-07-24T02:47:50;9.07;;;6.03;;
64875;SDS011;51369;49.862;9.908;2023-07-24T02:50:15;8.32;;;5.78;;
64875;SDS011;51369;49.862;9.908;2023-07-24T02:52:41;8.73;;;5.80;;
64875;SDS011;51369;49.862;9.908;2023-07-24T02:55:06;8.93;;;5.78;;
64875;SDS011;51369;49.862;9.908;2023-07-24T02:57:32;8.75;;;6.03;;
64875;SDS011;51369;49.862;9.908;2023-07-24T02:59:57;7.53;;;5.38;;
64875;SDS011;51369;49.862;9.908;2023-07-24T03:02:22;8.15;;;5.65;;
64875;SDS011;51369;49.862;9.908;2023-07-24T03:04:48;10.20;;;6.82;;
64875;SDS011;51369;49.862;9.908;2023-07-24T03:07:13;8.52;;;6.10;;
64875;SDS011;51369;49.862;9.908;2023-07-24T03:09:39;10.13;;;6.22;;
64875;SDS011;51369;49.862;9.908;2023-07-24T03:12:04;8.02;;;5.80;;
64875;SDS011;51369;49.862;9.908;2023-07-24T03:14:30;11.52;;;6.53;;
64875;SDS011;51369;49.862;9.908;2023-07-24T03:16:55;8.85;;;5.82;;
64875;SDS011;51369;49.862;9.908;2023-07-24T03:19:20;8.60;;;5.80;;
64875;SDS011;51369;49.862;9.908;2023-07-24T03:21:46;8.07;;;5.57;;
64875;SDS011;51369;49.862;9.908;2023-07-24T03:24:11;9.52;;;5.15;;
64875;SDS011;51369;49.862;9.908;2023-07-24T03:26:37;7.25;;;5.22;;
64875;SDS011;51369;49.862;9.908;2023-07-24T03:29:04;8.48;;;5.90;;
64875;SDS011;51369;49.862;9.908;2023-07-24T03:31:30;8.32;;;5.63;;
64875;SDS011;51369;49.862;9.908;2023-07-24T03:33:55;7.35;;;5.57;;
64875;SDS011;51369;49.862;9.908;2023-07-24T03:36:21;9.75;;;6.18;;
64875;SDS011;51369;49.862;9.908;2023-07-24T03:38:46;10.02;;;6.00;;
64875;SDS011;51369;49.862;9.908;2023-07-24T03:41:12;8.27;;;5.88;;
64875;SDS011;51369;49.862;9.908;2023-07-24T03:43:37;13.32;;;5.97;;
64875;SDS011;51369;49.862;9.908;2023-07-24T03:46:02;8.25;;;5.57;;
64875;SDS011;51369;49.862;9.908;2023-07-24T03:48:28;9.95;;;5.75;;
64875;SDS011;51369;49.862;9.908;2023-07-24T03:50:59;8.40;;;5.97;;
64875;SDS011;51369;49.862;9.908;2023-07-24T03:53:25;10.10;;;5.68;;
64875;SDS011;51369;49.862;9.908;2023-07-24T03:55:51;7.80;;;5.35;;
64875;SDS011;51369;49.862;9.908;2023-07-24T03:58:16;9.10;;;5.80;;
64875;SDS011;51369;49.862;9.908;2023-07-24T04:00:42;8.80;;;6.40;;
64875;SDS011;51369;49.862;9.908;2023-07-24T04:03:07;13.13;;;5.38;;
64875;SDS011;51369;49.862;9.908;2023-07-24T04:05:33;9.13;;;5.80;;
64875;SDS011;51369;49.862;9.908;2023-07-24T04:07:59;8.48;;;5.78;;
64875;SDS011;51369;49.862;9.908;2023-07-24T04:10:25;9.25;;;5.97;;
64875;SDS011;51369;49.862;9.908;2023-07-24T04:12:51;8.35;;;5.82;;
64875;SDS011;51369;49.862;9.908;2023-07-24T04:15:16;9.10;;;6.00;;
64875;SDS011;51369;49.862;9.908;2023-07-24T04:17:41;11.68;;;6.80;;
64875;SDS011;51369;49.862;9.908;2023-07-24T04:20:07;12.15;;;6.40;;
64875;SDS011;51369;49.862;9.908;2023-07-24T04:22:33;9.65;;;6.85;;
64875;SDS011;51369;49.862;9.908;2023-07-24T04:24:58;8.85;;;6.07;;
64875;SDS011;51369;49.862;9.908;2023-07-24T04:27:23;8.65;;;6.05;;
64875;SDS011;51369;49.862;9.908;2023-07-24T04:29:49;8.63;;;6.13;;
64875;SDS011;51369;49.862;9.908;2023-07-24T04:32:14;9.00;;;6.28;;
64875;SDS011;51369;49.862;9.908;2023-07-24T04:34:39;6.45;;;4.55;;
64875;SDS011;51369;49.862;9.908;2023-07-24T04:37:04;10.25;;;5.47;;
64875;SDS011;51369;49.862;9.908;2023-07-24T04:39:30;7.03;;;5.03;;
64875;SDS011;51369;49.862;9.908;2023-07-24T04:41:55;8.00;;;5.63;;
64875;SDS011;51369;49.862;9.908;2023-07-24T04:44:21;7.50;;;5.35;;
64875;SDS011;51369;49.862;9.908;2023-07-24T04:46:46;8.13;;;5.20;;
64875;SDS011;51369;49.862;9.908;2023-07-24T04:49:12;11.07;;;6.00;;
64875;SDS011;51369;49.862;9.908;2023-07-24T04:51:37;12.25;;;6.60;;
64875;SDS011;51369;49.862;9.908;2023-07-24T04:54:02;11.38;;;6.82;;
64875;SDS011;51369;49.862;9.908;2023-07-24T04:56:28;11.90;;;7.55;;
64875;SDS011;51369;49.862;9.908;2023-07-24T04:58:53;9.50;;;6.00;;
64875;SDS011;51369;49.862;9.908;2023-07-24T05:01:19;8.73;;;5.40;;
64875;SDS011;51369;49.862;9.908;2023-07-24T05:03:44;9.85;;;5.97;;
64875;SDS011;51369;49.862;9.908;2023-07-24T05:06:09;9.23;;;5.75;;
64875;SDS011;51369;49.862;9.908;2023-07-24T05:08:35;11.23;;;6.30;;
64875;SDS011;51369;49.862;9.908;2023-07-24T05:11:00;8.38;;;5.45;;
64875;SDS011;51369;49.862;9.908;2023-07-24T05:13:26;10.73;;;5.80;;
64875;SDS011;51369;49.862;9.908;2023-07-24T05:15:52;8.43;;;5.95;;
64875;SDS011;51369;49.862;9.908;2023-07-24T05:18:17;12.57;;;6.40;;
64875;SDS011;51369;49.862;9.908;2023-07-24T05:20:45;10.30;;;6.85;;
64875;SDS011;51369;49.862;9.908;2023-07-24T05:23:13;10.63;;;5.45;;
64875;SDS011;51369;49.862;9.908;2023-07-24T05:25:38;10.68;;;5.85;;
64875;SDS011;51369;49.862;9.908;2023-07-24T05:28:04;9.70;;;5.93;;
64875;SDS011;51369;49.862;9.908;2023-07-24T05:30:29;11.25;;;6.90;;
64875;SDS011;51369;49.862;9.908;2023-07-24T05:32:55;13.30;;;7.60;;
64875;SDS011;51369;49.862;9.908;2023-07-24T05:35:20;10.88;;;7.53;;
64875;SDS011;51369;49.862;9.908;2023-07-24T05:37:45;13.88;;;7.32;;
64875;SDS011;51369;49.862;9.908;2023-07-24T05:40:11;11.15;;;7.78;;
64875;SDS011;51369;49.862;9.908;2023-07-24T05:42:36;13.10;;;7.47;;
64875;SDS011;51369;49.862;9.908;2023-07-24T05:45:06;9.52;;;6.43;;
64875;SDS011;51369;49.862;9.908;2023-07-24T05:47:33;13.30;;;7.03;;
64875;SDS011;51369;49.862;9.908;2023-07-24T05:49:59;11.88;;;6.65;;
64875;SDS011;51369;49.862;9.908;2023-07-24T05:52:24;10.98;;;7.00;;
64875;SDS011;51369;49.862;9.908;2023-07-24T05:54:50;10.02;;;6.88;;
64875;SDS011;51369;49.862;9.908;2023-07-24T05:57:15;11.57;;;7.28;;
64875;SDS011;51369;49.862;9.908;2023-07-24T05:59:40;13.15;;;7.25;;
64875;SDS011;51369;49.862;9.908;2023-07-24T06:02:06;11.27;;;6.50;;
64875;SDS011;51369;49.862;9.908;2023-07-24T06:04:32;10.20;;;7.00;;
64875;SDS011;51369;49.862;9.908;2023-07-24T06:06:58;11.30;;;7.25;;
64875;SDS011;51369;49.862;9.908;2023-07-24T06:09:24;12.15;;;7.50;;
64875;SDS011;51369;49.862;9.908;2023-07-24T06:11:49;15.52;;;8.07;;
64875;SDS011;51369;49.862;9.908;2023-07-24T06:14:14;11.00;;;7.57;;
64875;SDS011;51369;49.862;9.908;2023-07-24T06:16:39;12.57;;;7.90;;
64875;SDS011;51369;49.862;9.908;2023-07-24T06:19:05;12.30;;;7.97;;
64875;SDS011;51369;49.862;9.908;2023-07-24T06:21:31;10.40;;;7.45;;
64875;SDS011;51369;49.862;9.908;2023-07-24T06:23:56;12.05;;;6.90;;
64875;SDS011;51369;49.862;9.908;2023-07-24T06:26:21;13.23;;;8.63;;
64875;SDS011;51369;49.862;9.908;2023-07-24T06:28:47;11.77;;;7.32;;
64875;SDS011;51369;49.862;9.908;2023-07-24T06:31:12;16.38;;;7.78;;
64875;SDS011;51369;49.862;9.908;2023-07-24T06:33:37;12.98;;;7.40;;
64875;SDS011;51369;49.862;9.908;2023-07-24T06:36:03;11.68;;;7.82;;
64875;SDS011;51369;49.862;9.908;2023-07-24T06:38:28;15.15;;;7.65;;
64875;SDS011;51369;49.862;9.908;2023-07-24T06:40:54;15.15;;;8.13;;
64875;SDS011;51369;49.862;9.908;2023-07-24T06:43:19;12.77;;;7.63;;
64875;SDS011;51369;49.862;9.908;2023-07-24T06:45:44;11.95;;;7.50;;
64875;SDS011;51369;49.862;9.908;2023-07-24T06:48:10;10.93;;;7.75;;
64875;SDS011;51369;49.862;9.908;2023-07-24T06:50:35;10.02;;;7.32;;
64875;SDS011;51369;49.862;9.908;2023-07-24T06:53:00;12.65;;;7.97;;
64875;SDS011;51369;49.862;9.908;2023-07-24T06:55:26;12.88;;;8.02;;
64875;SDS011;51369;49.862;9.908;2023-07-24T06:57:51;12.68;;;7.32;;
64875;SDS011;51369;49.862;9.908;2023-07-24T07:00:16;10.52;;;7.43;;
64875;SDS011;51369;49.862;9.908;2023-07-24T07:02:42;11.68;;;7.88;;
64875;SDS011;51369;49.862;9.908;2023-07-24T07:05:07;16.10;;;8.10;;
64875;SDS011;51369;49.862;9.908;2023-07-24T07:07:33;12.93;;;8.23;;
64875;SDS011;51369;49.862;9.908;2023-07-24T07:09:58;10.27;;;7.30;;
64875;SDS011;51369;49.862;9.908;2023-07-24T07:12:24;15.07;;;7.63;;
64875;SDS011;51369;49.862;9.908;2023-07-24T07:14:49;14.60;;;8.52;;
64875;SDS011;51369;49.862;9.908;2023-07-24T07:17:14;12.25;;;8.38;;
64875;SDS011;51369;49.862;9.908;2023-07-24T07:19:40;10.60;;;7.88;;
64875;SDS011;51369;49.862;9.908;2023-07-24T07:22:05;13.73;;;8.60;;
64875;SDS011;51369;49.862;9.908;2023-07-24T07:24:31;13.13;;;8.52;;
64875;SDS011;51369;49.862;9.908;2023-07-24T07:26:57;12.52;;;8.07;;
64875;SDS011;51369;49.862;9.908;2023-07-24T07:29:22;12.57;;;8.38;;
64875;SDS011;51369;49.862;9.908;2023-07-24T07:31:48;12.55;;;7.88;;
64875;SDS011;51369;49.862;9.908;2023-07-24T07:34:13;12.68;;;8.85;;
64875;SDS011;51369;49.862;9.908;2023-07-24T07:36:38;11.82;;;8.40;;
64875;SDS011;51369;49.862;9.908;2023-07-24T07:39:04;12.27;;;8.23;;
64875;SDS011;51369;49.862;9.908;2023-07-24T07:41:30;11.98;;;7.90;;
64875;SDS011;51369;49.862;9.908;2023-07-24T07:43:55;76.30;;;14.65;;
64875;SDS011;51369;49.862;9.908;2023-07-24T07:46:20;16.27;;;9.25;;
64875;SDS011;51369;49.862;9.908;2023-07-24T07:48:46;16.90;;;9.15;;
64875;SDS011;51369;49.862;9.908;2023-07-24T07:51:12;12.45;;;8.43;;
64875;SDS011;51369;49.862;9.908;2023-07-24T07:53:37;12.05;;;8.25;;
64875;SDS011;51369;49.862;9.908;2023-07-24T07:56:03;12.38;;;8.88;;
64875;SDS011;51369;49.862;9.908;2023-07-24T07:58:29;28.25;;;9.80;;
64875;SDS011;51369;49.862;9.908;2023-07-24T08:00:55;13.15;;;8.50;;
64875;SDS011;51369;49.862;9.908;2023-07-24T08:03:20;16.27;;;8.57;;
64875;SDS011;51369;49.862;9.908;2023-07-24T08:05:46;16.25;;;9.00;;
64875;SDS011;51369;49.862;9.908;2023-07-24T08:08:11;16.60;;;8.88;;
64875;SDS011;51369;49.862;9.908;2023-07-24T08:10:37;16.75;;;8.52;;
64875;SDS011;51369;49.862;9.908;2023-07-24T08:13:03;14.32;;;9.60;;
64875;SDS011;51369;49.862;9.908;2023-07-24T08:15:29;14.43;;;8.50;;
64875;SDS011;51369;49.862;9.908;2023-07-24T08:17:58;17.42;;;9.85;;
64875;SDS011;51369;49.862;9.908;2023-07-24T08:20:23;25.00;;;9.15;;
64875;SDS011;51369;49.862;9.908;2023-07-24T08:22:49;15.77;;;9.55;;
64875;SDS011;51369;49.862;9.908;2023-07-24T08:25:14;15.65;;;9.20;;
64875;SDS011;51369;49.862;9.908;2023-07-24T08:27:40;16.67;;;8.52;;
64875;SDS011;51369;49.862;9.908;2023-07-24T08:30:05;12.85;;;8.70;;
64875;SDS011;51369;49.862;9.908;2023-07-24T08:32:31;12.73;;;8.30;;
64875;SDS011;51369;49.862;9.908;2023-07-24T08:34:57;12.90;;;8.13;;
64875;SDS011;51369;49.862;9.908;2023-07-24T08:37:23;13.23;;;8.55;;
64875;SDS011;51369;49.862;9.908;2023-07-24T08:39:48;12.07;;;8.68;;
64875;SDS011;51369;49.862;9.908;2023-07-24T08:42:13;12.60;;;8.88;;
64875;SDS011;51369;49.862;9.908;2023-07-24T08:44:39;11.70;;;8.43;;
64875;SDS011;51369;49.862;9.908;2023-07-24T08:47:06;13.80;;;9.35;;
64875;SDS011;51369;49.862;9.908;2023-07-24T08:49:37;13.27;;;8.87;;
64875;SDS011;51369;49.862;9.908;2023-07-24T08:52:05;13.25;;;8.40;;
64875;SDS011;51369;49.862;9.908;2023-07-24T08:54:31;12.07;;;8.90;;
64875;SDS011;51369;49.862;9.908;2023-07-24T08:57:00;12.07;;;8.75;;
64875;SDS011;51369;49.862;9.908;2023-07-24T08:59:26;14.55;;;8.50;;
64875;SDS011;51369;49.862;9.908;2023-07-24T09:01:53;16.58;;;8.90;;
64875;SDS011;51369;49.862;9.908;2023-07-24T09:04:19;14.95;;;9.18;;
64875;SDS011;51369;49.862;9.908;2023-07-24T09:06:44;12.73;;;8.52;;
64875;SDS011;51369;49.862;9.908;2023-07-24T09:09:14;13.10;;;8.63;;
64875;SDS011;51369;49.862;9.908;2023-07-24T09:11:50;13.10;;;8.80;;
64875;SDS011;51369;49.862;9.908;2023-07-24T09:14:24;13.90;;;8.88;;
64875;SDS011;51369;49.862;9.908;2023-07-24T09:17:01;15.10;;;8.23;;
64875;SDS011;51369;49.862;9.908;2023-07-24T09:19:30;17.45;;;8.45;;
64875;SDS011;51369;49.862;9.908;2023-07-24T09:21:55;11.43;;;7.93;;
64875;SDS011;51369;49.862;9.908;2023-07-24T09:24:21;13.65;;;7.50;;
64875;SDS011;51369;49.862;9.908;2023-07-24T09:26:52;13.27;;;8.18;;
64875;SDS011;51369;49.862;9.908;2023-07-24T09:29:18;11.82;;;7.82;;
64875;SDS011;51369;49.862;9.908;2023-07-24T09:31:44;11.90;;;7.28;;
64875;SDS011;51369;49.862;9.908;2023-07-24T09:34:16;12.65;;;8.10;;
64875;SDS011;51369;49.862;9.908;2023-07-24T09:36:42;12.02;;;7.95;;
64875;SDS011;51369;49.862;9.908;2023-07-24T09:39:09;11.73;;;8.15;;
64875;SDS011;51369;49.862;9.908;2023-07-24T09:41:38;12.65;;;8.05;;
64875;SDS011;51369;49.862;9.908;2023-07-24T09:44:04;10.77;;;7.90;;
64875;SDS011;51369;49.862;9.908;2023-07-24T09:46:30;14.65;;;8.05;;
64875;SDS011;51369;49.862;9.908;2023-07-24T09:48:57;10.27;;;7.30;;
64875;SDS011;51369;49.862;9.908;2023-07-24T09:51:23;14.55;;;8.52;;
64875;SDS011;51369;49.862;9.908;2023-07-24T09:56:30;12.60;;;7.82;;
64875;SDS011;51369;49.862;9.908;2023-07-24T09:58:57;11.70;;;8.30;;
64875;SDS011;51369;49.862;9.908;2023-07-24T10:01:25;11.68;;;7.65;;
64875;SDS011;51369;49.862;9.908;2023-07-24T10:03:51;17.08;;;8.63;;
64875;SDS011;51369;49.862;9.908;2023-07-24T10:06:16;16.88;;;8.60;;
64875;SDS011;51369;49.862;9.908;2023-07-24T10:08:42;14.20;;;8.20;;
64875;SDS011;51369;49.862;9.908;2023-07-24T10:11:09;13.35;;;7.60;;
64875;SDS011;51369;49.862;9.908;2023-07-24T10:13:36;13.13;;;8.18;;
64875;SDS011;51369;49.862;9.908;2023-07-24T10:16:03;11.77;;;8.80;;
64875;SDS011;51369;49.862;9.908;2023-07-24T10:18:32;15.18;;;8.50;;
64875;SDS011;51369;49.862;9.908;2023-07-24T10:21:03;10.82;;;7.88;;
64875;SDS011;51369;49.862;9.908;2023-07-24T10:23:30;13.57;;;8.45;;
64875;SDS011;51369;49.862;9.908;2023-07-24T10:26:02;16.02;;;8.52;;
64875;SDS011;51369;49.862;9.908;2023-07-24T10:28:31;12.32;;;7.70;;
64875;SDS011;51369;49.862;9.908;2023-07-24T10:30:58;14.73;;;7.30;;
64875;SDS011;51369;49.862;9.908;2023-07-24T10:33:23;10.90;;;7.40;;
64875;SDS011;51369;49.862;9.908;2023-07-24T10:35:52;10.23;;;7.65;;
64875;SDS011;51369;49.862;9.908;2023-07-24T10:38:19;12.80;;;7.72;;
64875;SDS011;51369;49.862;9.908;2023-07-24T10:40:46;13.25;;;7.63;;
64875;SDS011;51369;49.862;9.908;2023-07-24T10:43:19;11.82;;;7.47;;
64875;SDS011;51369;49.862;9.908;2023-07-24T10:48:19;13.55;;;8.55;;
64875;SDS011;51369;49.862;9.908;2023-07-24T10:50:47;12.88;;;8.40;;
64875;SDS011;51369;49.862;9.908;2023-07-24T10:53:15;15.18;;;8.48;;
64875;SDS011;51369;49.862;9.908;2023-07-24T10:55:42;11.02;;;8.07;;
64875;SDS011;51369;49.862;9.908;2023-07-24T10:58:08;13.88;;;7.40;;
64875;SDS011;51369;49.862;9.908;2023-07-24T11:00:34;13.30;;;8.05;;
64875;SDS011;51369;49.862;9.908;2023-07-24T11:03:00;12.10;;;8.48;;
64875;SDS011;51369;49.862;9.908;2023-07-24T11:05:26;12.38;;;8.23;;
64875;SDS011;51369;49.862;9.908;2023-07-24T11:07:51;12.77;;;8.70;;
64875;SDS011;51369;49.862;9.908;2023-07-24T11:10:17;12.93;;;8.68;;
64875;SDS011;51369;49.862;9.908;2023-07-24T11:12:46;10.38;;;7.97;;
64875;SDS011;51369;49.862;9.908;2023-07-24T11:15:12;14.82;;;8.85;;
64875;SDS011;51369;49.862;9.908;2023-07-24T11:17:39;12.43;;;8.60;;
64875;SDS011;51369;49.862;9.908;2023-07-24T11:20:07;13.48;;;7.88;;
64875;SDS011;51369;49.862;9.908;2023-07-24T11:22:33;12.90;;;8.05;;
64875;SDS011;51369;49.862;9.908;2023-07-24T11:24:59;9.73;;;7.68;;
64875;SDS011;51369;49.862;9.908;2023-07-24T11:27:26;9.90;;;7.78;;
64875;SDS011;51369;49.862;9.908;2023-07-24T11:29:52;9.60;;;7.70;;
64875;SDS011;51369;49.862;9.908;2023-07-24T11:32:21;8.98;;;7.45;;
64875;SDS011;51369;49.862;9.908;2023-07-24T11:34:47;9.50;;;7.35;;
64875;SDS011;51369;49.862;9.908;2023-07-24T11:37:14;14.82;;;7.53;;
64875;SDS011;51369;49.862;9.908;2023-07-24T11:39:39;9.85;;;7.55;;
64875;SDS011;51369;49.862;9.908;2023-07-24T11:42:05;11.90;;;7.50;;
64875;SDS011;51369;49.862;9.908;2023-07-24T11:44:31;11.18;;;7.68;;
64875;SDS011;51369;49.862;9.908;2023-07-24T11:47:01;11.25;;;7.47;;
64875;SDS011;51369;49.862;9.908;2023-07-24T11:49:28;11.60;;;8.00;;
64875;SDS011;51369;49.862;9.908;2023-07-24T11:52:03;13.25;;;7.60;;
64875;SDS011;51369;49.862;9.908;2023-07-24T11:54:30;13.90;;;8.45;;
64875;SDS011;51369;49.862;9.908;2023-07-24T11:56:55;13.57;;;8.23;;
64875;SDS011;51369;49.862;9.908;2023-07-24T11:59:21;12.32;;;7.90;;
64875;SDS011;51369;49.862;9.908;2023-07-24T12:01:47;12.48;;;7.10;;
64875;SDS011;51369;49.862;9.908;2023-07-24T12:04:16;8.88;;;6.72;;
64875;SDS011;51369;49.862;9.908;2023-07-24T12:06:41;11.18;;;7.88;;
64875;SDS011;51369;49.862;9.908;2023-07-24T12:09:07;9.85;;;7.25;;
64875;SDS011;51369;49.862;9.908;2023-07-24T12:11:39;12.13;;;7.85;;
64875;SDS011;51369;49.862;9.908;2023-07-24T12:14:06;11.77;;;8.10;;
64875;SDS011;51369;49.862;9.908;2023-07-24T12:16:33;12.48;;;7.53;;
64875;SDS011;51369;49.862;9.908;2023-07-24T12:18:59;11.10;;;7.03;;
64875;SDS011;51369;49.862;9.908;2023-07-24T12:21:25;9.30;;;7.50;;
64875;SDS011;51369;49.862;9.908;2023-07-24T12:23:50;10.80;;;7.55;;
64875;SDS011;51369;49.862;9.908;2023-07-24T12:26:15;11.32;;;7.97;;
64875;SDS011;51369;49.862;9.908;2023-07-24T12:28:41;10.52;;;6.70;;
64875;SDS011;51369;49.862;9.908;2023-07-24T12:31:06;10.05;;;7.55;;
64875;SDS011;51369;49.862;9.908;2023-07-24T12:33:31;9.80;;;7.18;;
64875;SDS011;51369;49.862;9.908;2023-07-24T12:35:57;10.13;;;7.72;;
64875;SDS011;51369;49.862;9.908;2023-07-24T12:38:22;10.43;;;7.72;;
64875;SDS011;51369;49.862;9.908;2023-07-24T12:40:48;9.63;;;7.18;;
64875;SDS011;51369;49.862;9.908;2023-07-24T12:43:14;8.85;;;7.35;;
64875;SDS011;51369;49.862;9.908;2023-07-24T12:45:40;12.20;;;8.70;;
64875;SDS011;51369;49.862;9.908;2023-07-24T12:48:05;10.85;;;7.60;;
64875;SDS011;51369;49.862;9.908;2023-07-24T12:50:31;12.55;;;7.85;;
64875;SDS011;51369;49.862;9.908;2023-07-24T12:52:56;12.85;;;8.43;;
64875;SDS011;51369;49.862;9.908;2023-07-24T12:55:21;12.00;;;8.00;;
64875;SDS011;51369;49.862;9.908;2023-07-24T12:57:47;9.68;;;7.32;;
64875;SDS011;51369;49.862;9.908;2023-07-24T13:00:12;14.00;;;8.52;;
64875;SDS011;51369;49.862;9.908;2023-07-24T13:02:38;12.82;;;8.38;;
64875;SDS011;51369;49.862;9.908;2023-07-24T13:05:03;12.95;;;8.00;;
64875;SDS011;51369;49.862;9.908;2023-07-24T13:07:29;10.88;;;7.72;;
64875;SDS011;51369;49.862;9.908;2023-07-24T13:09:54;11.50;;;8.60;;
64875;SDS011;51369;49.862;9.908;2023-07-24T13:12:20;9.75;;;8.45;;
64875;SDS011;51369;49.862;9.908;2023-07-24T13:14:45;12.57;;;8.05;;
64875;SDS011;51369;49.862;9.908;2023-07-24T13:17:11;11.73;;;8.35;;
64875;SDS011;51369;49.862;9.908;2023-07-24T13:19:37;9.70;;;7.95;;
64875;SDS011;51369;49.862;9.908;2023-07-24T13:22:02;13.18;;;8.38;;
64875;SDS011;51369;49.862;9.908;2023-07-24T13:24:28;11.45;;;8.25;;
64875;SDS011;51369;49.862;9.908;2023-07-24T13:26:53;12.75;;;8.52;;
64875;SDS011;51369;49.862;9.908;2023-07-24T13:29:18;12.45;;;8.10;;
64875;SDS011;51369;49.862;9.908;2023-07-24T13:31:44;12.90;;;8.30;;
64875;SDS011;51369;49.862;9.908;2023-07-24T13:34:09;10.20;;;8.32;;
64875;SDS011;51369;49.862;9.908;2023-07-24T13:36:35;10.55;;;8.25;;
64875;SDS011;51369;49.862;9.908;2023-07-24T13:39:01;14.70;;;7.97;;
64875;SDS011;51369;49.862;9.908;2023-07-24T13:41:27;13.18;;;9.60;;
64875;SDS011;51369;49.862;9.908;2023-07-24T13:43:52;10.75;;;8.18;;
64875;SDS011;51369;49.862;9.908;2023-07-24T13:46:18;10.40;;;8.32;;
64875;SDS011;51369;49.862;9.908;2023-07-24T13:48:43;13.00;;;8.05;;
64875;SDS011;51369;49.862;9.908;2023-07-24T13:51:09;11.48;;;8.15;;
64875;SDS011;51369;49.862;9.908;2023-07-24T13:53:34;11.05;;;8.00;;
64875;SDS011;51369;49.862;9.908;2023-07-24T13:56:01;10.88;;;8.30;;
64875;SDS011;51369;49.862;9.908;2023-07-24T13:58:26;11.63;;;9.07;;
64875;SDS011;51369;49.862;9.908;2023-07-24T14:00:52;9.02;;;7.88;;
64875;SDS011;51369;49.862;9.908;2023-07-24T14:03:17;11.18;;;8.20;;
64875;SDS011;51369;49.862;9.908;2023-07-24T14:05:42;12.00;;;7.85;;
64875;SDS011;51369;49.862;9.908;2023-07-24T14:08:08;10.50;;;8.00;;
64875;SDS011;51369;49.862;9.908;2023-07-24T14:10:34;10.35;;;7.40;;
64875;SDS011;51369;49.862;9.908;2023-07-24T14:12:59;10.05;;;7.85;;
64875;SDS011;51369;49.862;9.908;2023-07-24T14:15:24;9.82;;;8.15;;
64875;SDS011;51369;49.862;9.908;2023-07-24T14:17:50;14.48;;;8.30;;
64875;SDS011;51369;49.862;9.908;2023-07-24T14:20:15;16.30;;;8.27;;
64875;SDS011;51369;49.862;9.908;2023-07-24T14:22:41;9.82;;;7.88;;
64875;SDS011;51369;49.862;9.908;2023-07-24T14:25:06;13.82;;;8.68;;
64875;SDS011;51369;49.862;9.908;2023-07-24T14:27:32;10.98;;;8.30;;
64875;SDS011;51369;49.862;9.908;2023-07-24T14:29:57;9.65;;;7.80;;
64875;SDS011;51369;49.862;9.908;2023-07-24T14:32:23;11.07;;;8.45;;
64875;SDS011;51369;49.862;9.908;2023-07-24T14:34:49;13.35;;;7.97;;
64875;SDS011;51369;49.862;9.908;2023-07-24T14:37:16;10.73;;;7.88;;